sensor_id;sensor_type;location;lat;lon;timestamp;pressure;altitude;pressure_sealevel;temperature;humidity
27334;BME280;14817;57.104;-2.094;2023-05-12T00:00:58;101636.09;;;8.93;100.00
27334;BME280;14817;57.104;-2.094;2023-05-12T00:03:25;101646.28;;;8.88;100.00
27334;BME280;14817;57.104;-2.094;2023-05-12T00:05:52;101642.84;;;8.86;100.00
27334;BME280;14817;57.104;-2.094;2023-05-12T00:08:19;101641.47;;;8.80;100.00
27334;BME280;14817;57.104;-2.094;2023-05-12T00:10:46;101641.03;;;8.86;100.00
27334;BME280;14817;57.104;-2.094;2023-05-12T00:13:13;101639.00;;;8.90;100.00
27334;BME280;14817;57.104;-2.094;2023-05-12T00:15:40;101641.03;;;8.86;100.00
27334;BME280;14817;57.104;-2.094;2023-05-12T00:18:07;101644.09;;;8.93;100.00
27334;BME280;14817;57.104;-2.094;2023-05-12T00:20:33;101652.34;;;8.90;100.00
27334;BME280;14817;57.104;-2.094;2023-05-12T00:23:00;101649.88;;;8.87;100.00
27334;BME280;14817;57.104;-2.094;2023-05-12T00:25:27;101652.34;;;8.90;100.00
27334;BME280;14817;57.104;-2.094;2023-05-12T00:27:54;101648.47;;;8.94;100.00
27334;BME280;14817;57.104;-2.094;2023-05-12T00:30:21;101653.09;;;8.92;100.00
27334;BME280;14817;57.104;-2.094;2023-05-12T00:32:47;101651.25;;;8.92;100.00
27334;BME280;14817;57.104;-2.094;2023-05-12T00:35:15;101648.25;;;8.97;100.00
27334;BME280;14817;57.104;-2.094;2023-05-12T00:37:42;101659.28;;;8.92;100.00
27334;BME280;14817;57.104;-2.094;2023-05-12T00:40:09;101659.69;;;8.99;100.00
27334;BME280;14817;57.104;-2.094;2023-05-12T00:42:37;101656.72;;;8.91;100.00
27334;BME280;14817;57.104;-2.094;2023-05-12T00:45:04;101655.19;;;8.99;100.00
27334;BME280;14817;57.104;-2.094;2023-05-12T00:47:32;101661.94;;;8.92;100.00
27334;BME280;14817;57.104;-2.094;2023-05-12T00:49:59;101668.09;;;8.82;100.00
27334;BME280;14817;57.104;-2.094;2023-05-12T00:52:26;101659.69;;;8.99;100.00
27334;BME280;14817;57.104;-2.094;2023-05-12T00:54:53;101653.88;;;9.05;100.00
27334;BME280;14817;57.104;-2.094;2023-05-12T00:57:21;101657.94;;;8.98;100.00
27334;BME280;14817;57.104;-2.094;2023-05-12T00:59:48;101651.81;;;8.85;100.00
27334;BME280;14817;57.104;-2.094;2023-05-12T01:02:15;101651.81;;;8.85;100.00
27334;BME280;14817;57.104;-2.094;2023-05-12T01:04:42;101650.41;;;8.92;100.00
27334;BME280;14817;57.104;-2.094;2023-05-12T01:07:12;101647.56;;;9.06;100.00
27334;BME280;14817;57.104;-2.094;2023-05-12T01:09:41;101662.91;;;8.91;100.00
27334;BME280;14817;57.104;-2.094;2023-05-12T01:12:09;101663.81;;;9.03;100.00
27334;BME280;14817;57.104;-2.094;2023-05-12T01:14:36;101662.00;;;9.04;100.00
27334;BME280;14817;57.104;-2.094;2023-05-12T01:17:09;101664.66;;;9.04;100.00
27334;BME280;14817;57.104;-2.094;2023-05-12T01:20:00;101666.56;;;8.90;100.00
27334;BME280;14817;57.104;-2.094;2023-05-12T01:22:28;101659.72;;;8.86;100.00
27334;BME280;14817;57.104;-2.094;2023-05-12T01:25:03;101660.13;;;8.93;100.00
27334;BME280;14817;57.104;-2.094;2023-05-12T01:27:35;101661.81;;;8.94;100.00
27334;BME280;14817;57.104;-2.094;2023-05-12T01:30:06;101662.75;;;9.06;100.00
27334;BME280;14817;57.104;-2.094;2023-05-12T01:32:34;101661.09;;;8.92;100.00
27334;BME280;14817;57.104;-2.094;2023-05-12T01:35:03;101654.38;;;8.86;100.00
27334;BME280;14817;57.104;-2.094;2023-05-12T01:37:31;101657.69;;;8.90;100.00
27334;BME280;14817;57.104;-2.094;2023-05-12T01:40:01;101667.41;;;8.91;100.00
27334;BME280;14817;57.104;-2.094;2023-05-12T01:42:28;101668.38;;;8.90;100.00
27334;BME280;14817;57.104;-2.094;2023-05-12T01:44:55;101666.22;;;8.95;100.00
27334;BME280;14817;57.104;-2.094;2023-05-12T01:47:23;101653.34;;;9.00;100.00
27334;BME280;14817;57.104;-2.094;2023-05-12T01:50:02;101662.50;;;9.09;100.00
27334;BME280;14817;57.104;-2.094;2023-05-12T01:52:30;101662.25;;;9.01;100.00
27334;BME280;14817;57.104;-2.094;2023-05-12T01:54:56;101659.97;;;9.07;100.00
27334;BME280;14817;57.104;-2.094;2023-05-12T01:57:25;101662.38;;;9.10;100.00
27334;BME280;14817;57.104;-2.094;2023-05-12T01:59:55;101664.31;;;9.08;100.00
27334;BME280;14817;57.104;-2.094;2023-05-12T02:02:22;101664.28;;;8.97;100.00
27334;BME280;14817;57.104;-2.094;2023-05-12T02:04:49;101662.84;;;9.04;100.00
27334;BME280;14817;57.104;-2.094;2023-05-12T02:07:16;101666.41;;;9.05;100.00
27334;BME280;14817;57.104;-2.094;2023-05-12T02:09:44;101668.72;;;9.09;100.00
27334;BME280;14817;57.104;-2.094;2023-05-12T02:12:11;101671.09;;;9.01;100.00
27334;BME280;14817;57.104;-2.094;2023-05-12T02:14:38;101667.00;;;9.08;100.00
27334;BME280;14817;57.104;-2.094;2023-05-12T02:17:04;101669.66;;;9.08;100.00
27334;BME280;14817;57.104;-2.094;2023-05-12T02:19:31;101672.72;;;9.15;100.00
27334;BME280;14817;57.104;-2.094;2023-05-12T02:21:58;101674.00;;;9.22;100.00
27334;BME280;14817;57.104;-2.094;2023-05-12T02:24:25;101666.53;;;9.14;100.00
27334;BME280;14817;57.104;-2.094;2023-05-12T02:26:52;101677.56;;;9.10;100.00
27334;BME280;14817;57.104;-2.094;2023-05-12T02:29:19;101678.66;;;9.07;100.00
27334;BME280;14817;57.104;-2.094;2023-05-12T02:31:45;101678.44;;;9.10;100.00
27334;BME280;14817;57.104;-2.094;2023-05-12T02:34:15;101680.94;;;9.25;100.00
27334;BME280;14817;57.104;-2.094;2023-05-12T02:36:42;101682.63;;;9.26;100.00
27334;BME280;14817;57.104;-2.094;2023-05-12T02:39:10;101684.78;;;9.20;100.00
27334;BME280;14817;57.104;-2.094;2023-05-12T02:41:39;101679.53;;;9.43;100.00
27334;BME280;14817;57.104;-2.094;2023-05-12T02:44:06;101674.41;;;9.40;100.00
27334;BME280;14817;57.104;-2.094;2023-05-12T02:46:33;101675.25;;;9.40;100.00
27334;BME280;14817;57.104;-2.094;2023-05-12T02:49:00;101680.19;;;9.23;100.00
27334;BME280;14817;57.104;-2.094;2023-05-12T02:51:27;101690.41;;;9.29;100.00
27334;BME280;14817;57.104;-2.094;2023-05-12T02:53:54;101692.63;;;9.35;100.00
27334;BME280;14817;57.104;-2.094;2023-05-12T02:56:21;101696.13;;;9.24;100.00
27334;BME280;14817;57.104;-2.094;2023-05-12T02:58:48;101701.84;;;9.31;100.00
27334;BME280;14817;57.104;-2.094;2023-05-12T03:01:15;101687.97;;;9.26;100.00
27334;BME280;14817;57.104;-2.094;2023-05-12T03:03:42;101691.03;;;9.32;100.00
27334;BME280;14817;57.104;-2.094;2023-05-12T03:06:09;101694.13;;;9.39;100.00
27334;BME280;14817;57.104;-2.094;2023-05-12T03:08:36;101692.28;;;9.39;100.00
27334;BME280;14817;57.104;-2.094;2023-05-12T03:11:02;101696.25;;;9.34;100.00
27334;BME280;14817;57.104;-2.094;2023-05-12T03:13:29;101696.72;;;9.28;100.00
27334;BME280;14817;57.104;-2.094;2023-05-12T03:15:56;101696.72;;;9.28;100.00
27334;BME280;14817;57.104;-2.094;2023-05-12T03:18:29;101702.81;;;9.30;100.00
27334;BME280;14817;57.104;-2.094;2023-05-12T03:20:56;101708.59;;;9.24;100.00
27334;BME280;14817;57.104;-2.094;2023-05-12T03:23:23;101710.31;;;9.25;100.00
27334;BME280;14817;57.104;-2.094;2023-05-12T03:25:50;101713.22;;;9.22;100.00
27334;BME280;14817;57.104;-2.094;2023-05-12T03:28:17;101713.34;;;9.20;100.00
27334;BME280;14817;57.104;-2.094;2023-05-12T03:30:44;101711.06;;;9.27;100.00
27334;BME280;14817;57.104;-2.094;2023-05-12T03:33:11;101718.28;;;9.37;100.00
27334;BME280;14817;57.104;-2.094;2023-05-12T03:35:37;101720.28;;;9.23;100.00
27334;BME280;14817;57.104;-2.094;2023-05-12T03:38:04;101722.25;;;9.08;100.00
27334;BME280;14817;57.104;-2.094;2023-05-12T03:40:31;101724.88;;;9.20;100.00
27334;BME280;14817;57.104;-2.094;2023-05-12T03:42:58;101736.78;;;9.16;100.00
27334;BME280;14817;57.104;-2.094;2023-05-12T03:45:25;101728.69;;;9.05;100.00
27334;BME280;14817;57.104;-2.094;2023-05-12T03:47:52;101737.22;;;9.10;100.00
27334;BME280;14817;57.104;-2.094;2023-05-12T03:50:19;101750.38;;;9.13;100.00
27334;BME280;14817;57.104;-2.094;2023-05-12T03:52:46;101743.25;;;9.01;100.00
27334;BME280;14817;57.104;-2.094;2023-05-12T03:55:13;101748.25;;;9.06;100.00
27334;BME280;14817;57.104;-2.094;2023-05-12T03:57:41;101741.22;;;9.05;100.00
27334;BME280;14817;57.104;-2.094;2023-05-12T04:00:08;101746.41;;;9.06;100.00
27334;BME280;14817;57.104;-2.094;2023-05-12T04:02:38;101747.94;;;8.97;100.00
27334;BME280;14817;57.104;-2.094;2023-05-12T04:05:06;101753.50;;;9.07;100.00
27334;BME280;14817;57.104;-2.094;2023-05-12T04:07:34;101753.50;;;9.07;100.00
27334;BME280;14817;57.104;-2.094;2023-05-12T04:10:01;101758.94;;;9.06;100.00
27334;BME280;14817;57.104;-2.094;2023-05-12T04:12:28;101769.91;;;9.14;100.00
27334;BME280;14817;57.104;-2.094;2023-05-12T04:14:56;101764.91;;;9.09;100.00
27334;BME280;14817;57.104;-2.094;2023-05-12T04:17:23;101772.06;;;9.09;100.00
27334;BME280;14817;57.104;-2.094;2023-05-12T04:19:51;101772.94;;;9.09;100.00
27334;BME280;14817;57.104;-2.094;2023-05-12T04:22:19;101774.47;;;9.01;100.00
27334;BME280;14817;57.104;-2.094;2023-05-12T04:24:47;101780.72;;;9.12;100.00
27334;BME280;14817;57.104;-2.094;2023-05-12T04:27:13;101783.38;;;9.12;100.00
27334;BME280;14817;57.104;-2.094;2023-05-12T04:29:40;101784.56;;;9.08;100.00
27334;BME280;14817;57.104;-2.094;2023-05-12T04:32:07;101783.38;;;9.12;100.00
27334;BME280;14817;57.104;-2.094;2023-05-12T04:34:35;101776.91;;;9.04;100.00
27334;BME280;14817;57.104;-2.094;2023-05-12T04:37:01;101778.50;;;9.06;100.00
27334;BME280;14817;57.104;-2.094;2023-05-12T04:39:29;101780.66;;;9.01;100.00
27334;BME280;14817;57.104;-2.094;2023-05-12T04:41:58;101789.47;;;9.14;100.00
27334;BME280;14817;57.104;-2.094;2023-05-12T04:44:26;101786.84;;;9.02;100.00
27334;BME280;14817;57.104;-2.094;2023-05-12T04:46:53;101793.56;;;9.07;100.00
27334;BME280;14817;57.104;-2.094;2023-05-12T04:49:23;101799.13;;;9.04;100.00
27334;BME280;14817;57.104;-2.094;2023-05-12T04:51:49;101797.72;;;9.11;100.00
27334;BME280;14817;57.104;-2.094;2023-05-12T04:54:16;101801.06;;;9.02;100.00
27334;BME280;14817;57.104;-2.094;2023-05-12T04:56:43;101799.66;;;9.09;100.00
27334;BME280;14817;57.104;-2.094;2023-05-12T04:59:10;101799.03;;;9.06;100.00
27334;BME280;14817;57.104;-2.094;2023-05-12T05:01:38;101806.69;;;9.10;100.00
27334;BME280;14817;57.104;-2.094;2023-05-12T05:04:04;101805.22;;;9.06;100.00
27334;BME280;14817;57.104;-2.094;2023-05-12T05:06:31;101809.06;;;9.02;100.00
27334;BME280;14817;57.104;-2.094;2023-05-12T05:08:59;101806.28;;;9.04;100.00
27334;BME280;14817;57.104;-2.094;2023-05-12T05:11:25;101809.31;;;8.99;100.00
27334;BME280;14817;57.104;-2.094;2023-05-12T05:13:52;101815.09;;;8.93;100.00
27334;BME280;14817;57.104;-2.094;2023-05-12T05:16:19;101811.97;;;8.99;100.00
27334;BME280;14817;57.104;-2.094;2023-05-12T05:18:48;101810.56;;;9.06;100.00
27334;BME280;14817;57.104;-2.094;2023-05-12T05:21:15;101816.13;;;9.03;100.00
27334;BME280;14817;57.104;-2.094;2023-05-12T05:23:42;101815.50;;;8.99;100.00
27334;BME280;14817;57.104;-2.094;2023-05-12T05:26:09;101820.50;;;9.04;100.00
27334;BME280;14817;57.104;-2.094;2023-05-12T05:28:37;101818.03;;;9.14;100.00
27334;BME280;14817;57.104;-2.094;2023-05-12T05:31:06;101826.44;;;9.20;100.00
27334;BME280;14817;57.104;-2.094;2023-05-12T05:33:33;101823.28;;;9.15;100.00
27334;BME280;14817;57.104;-2.094;2023-05-12T05:36:02;101827.41;;;9.19;100.00
27334;BME280;14817;57.104;-2.094;2023-05-12T05:38:30;101824.63;;;9.21;100.00
27334;BME280;14817;57.104;-2.094;2023-05-12T05:40:56;101830.81;;;9.22;100.00
27334;BME280;14817;57.104;-2.094;2023-05-12T05:43:24;101838.66;;;9.12;100.00
27334;BME280;14817;57.104;-2.094;2023-05-12T05:45:52;101850.06;;;9.27;100.00
27334;BME280;14817;57.104;-2.094;2023-05-12T05:48:21;101849.22;;;9.26;100.00
27334;BME280;14817;57.104;-2.094;2023-05-12T05:50:50;101861.31;;;9.19;100.00
27334;BME280;14817;57.104;-2.094;2023-05-12T05:53:19;101858.63;;;9.19;100.00
27334;BME280;14817;57.104;-2.094;2023-05-12T05:55:46;101861.94;;;9.23;100.00
27334;BME280;14817;57.104;-2.094;2023-05-12T05:58:14;101858.44;;;9.22;100.00
27334;BME280;14817;57.104;-2.094;2023-05-12T06:00:42;101866.44;;;9.22;100.00
27334;BME280;14817;57.104;-2.094;2023-05-12T06:03:09;101869.53;;;9.29;100.00
27334;BME280;14817;57.104;-2.094;2023-05-12T06:05:37;101862.91;;;9.22;100.00
27334;BME280;14817;57.104;-2.094;2023-05-12T06:08:04;101867.34;;;9.34;100.00
27334;BME280;14817;57.104;-2.094;2023-05-12T06:10:34;101865.13;;;9.28;100.00
27334;BME280;14817;57.104;-2.094;2023-05-12T06:13:01;101861.59;;;9.27;100.00
27334;BME280;14817;57.104;-2.094;2023-05-12T06:15:28;101865.38;;;9.25;100.00
27334;BME280;14817;57.104;-2.094;2023-05-12T06:17:55;101872.19;;;9.29;100.00
27334;BME280;14817;57.104;-2.094;2023-05-12T06:20:22;101873.16;;;9.28;100.00
27334;BME280;14817;57.104;-2.094;2023-05-12T06:22:50;101874.63;;;9.32;100.00
27334;BME280;14817;57.104;-2.094;2023-05-12T06:25:17;101871.00;;;9.33;100.00
27334;BME280;14817;57.104;-2.094;2023-05-12T06:27:44;101878.34;;;9.42;100.00
27334;BME280;14817;57.104;-2.094;2023-05-12T06:30:11;101870.44;;;9.40;100.00
27334;BME280;14817;57.104;-2.094;2023-05-12T06:32:41;101872.38;;;9.38;100.00
27334;BME280;14817;57.104;-2.094;2023-05-12T06:35:08;101869.50;;;9.42;100.00
27334;BME280;14817;57.104;-2.094;2023-05-12T06:37:35;101866.03;;;9.52;100.00
27334;BME280;14817;57.104;-2.094;2023-05-12T06:40:02;101873.59;;;9.58;100.00
27334;BME280;14817;57.104;-2.094;2023-05-12T06:42:29;101872.47;;;9.50;100.00
27334;BME280;14817;57.104;-2.094;2023-05-12T06:44:56;101868.88;;;9.62;100.00
27334;BME280;14817;57.104;-2.094;2023-05-12T06:47:22;101864.31;;;9.51;100.00
27334;BME280;14817;57.104;-2.094;2023-05-12T06:49:49;101870.34;;;9.66;100.00
27334;BME280;14817;57.104;-2.094;2023-05-12T06:52:16;101859.78;;;9.65;100.00
27334;BME280;14817;57.104;-2.094;2023-05-12T06:54:43;101862.13;;;9.69;100.00
27334;BME280;14817;57.104;-2.094;2023-05-12T06:57:10;101857.78;;;9.79;100.00
27334;BME280;14817;57.104;-2.094;2023-05-12T06:59:36;101859.72;;;9.77;100.00
27334;BME280;14817;57.104;-2.094;2023-05-12T07:02:03;101848.22;;;9.88;100.00
27334;BME280;14817;57.104;-2.094;2023-05-12T07:04:33;101848.78;;;9.80;100.00
27334;BME280;14817;57.104;-2.094;2023-05-12T07:07:02;101849.81;;;9.91;100.00
27334;BME280;14817;57.104;-2.094;2023-05-12T07:09:29;101855.50;;;9.86;100.00
27334;BME280;14817;57.104;-2.094;2023-05-12T07:11:56;101855.16;;;9.91;100.00
27334;BME280;14817;57.104;-2.094;2023-05-12T07:14:23;101860.88;;;9.86;100.00
27334;BME280;14817;57.104;-2.094;2023-05-12T07:16:50;101865.63;;;9.94;100.00
27334;BME280;14817;57.104;-2.094;2023-05-12T07:19:17;101862.19;;;9.92;100.00
27334;BME280;14817;57.104;-2.094;2023-05-12T07:21:43;101866.00;;;10.00;100.00
27334;BME280;14817;57.104;-2.094;2023-05-12T07:24:10;101870.06;;;10.06;100.00
27334;BME280;14817;57.104;-2.094;2023-05-12T07:26:37;101868.81;;;9.99;100.00
27334;BME280;14817;57.104;-2.094;2023-05-12T07:29:04;101873.25;;;9.87;100.00
27334;BME280;14817;57.104;-2.094;2023-05-12T07:31:32;101869.34;;;10.15;100.00
27334;BME280;14817;57.104;-2.094;2023-05-12T07:33:59;101873.47;;;10.32;100.00
27334;BME280;14817;57.104;-2.094;2023-05-12T07:36:26;101875.72;;;10.26;100.00
27334;BME280;14817;57.104;-2.094;2023-05-12T07:38:53;101873.59;;;10.31;100.00
27334;BME280;14817;57.104;-2.094;2023-05-12T07:41:20;101866.44;;;10.42;100.00
27334;BME280;14817;57.104;-2.094;2023-05-12T07:43:47;101865.66;;;10.29;100.00
27334;BME280;14817;57.104;-2.094;2023-05-12T07:46:14;101864.00;;;10.51;100.00
27334;BME280;14817;57.104;-2.094;2023-05-12T07:48:41;101869.00;;;10.44;100.00
27334;BME280;14817;57.104;-2.094;2023-05-12T07:51:07;101867.78;;;10.24;100.00
27334;BME280;14817;57.104;-2.094;2023-05-12T07:53:34;101870.41;;;10.37;100.00
27334;BME280;14817;57.104;-2.094;2023-05-12T07:56:02;101882.00;;;10.37;100.00
27334;BME280;14817;57.104;-2.094;2023-05-12T07:58:28;101861.34;;;10.51;100.00
27334;BME280;14817;57.104;-2.094;2023-05-12T08:00:55;101860.50;;;10.50;100.00
27334;BME280;14817;57.104;-2.094;2023-05-12T08:03:24;101859.13;;;10.45;100.00
27334;BME280;14817;57.104;-2.094;2023-05-12T08:05:51;101864.75;;;10.53;100.00
27334;BME280;14817;57.104;-2.094;2023-05-12T08:08:18;101857.94;;;10.60;100.00
27334;BME280;14817;57.104;-2.094;2023-05-12T08:10:45;101861.22;;;10.52;100.00
27334;BME280;14817;57.104;-2.094;2023-05-12T08:13:12;101865.00;;;10.61;100.00
27334;BME280;14817;57.104;-2.094;2023-05-12T08:15:39;101866.59;;;10.52;100.00
27334;BME280;14817;57.104;-2.094;2023-05-12T08:18:05;101866.22;;;10.68;100.00
27334;BME280;14817;57.104;-2.094;2023-05-12T08:20:32;101868.16;;;10.66;100.00
27334;BME280;14817;57.104;-2.094;2023-05-12T08:23:00;101860.97;;;10.55;100.00
27334;BME280;14817;57.104;-2.094;2023-05-12T08:25:27;101860.75;;;10.70;100.00
27334;BME280;14817;57.104;-2.094;2023-05-12T08:27:56;101865.41;;;10.32;100.00
27334;BME280;14817;57.104;-2.094;2023-05-12T08:30:25;101853.28;;;10.39;100.00
27334;BME280;14817;57.104;-2.094;2023-05-12T08:32:53;101856.00;;;10.62;100.00
27334;BME280;14817;57.104;-2.094;2023-05-12T08:35:21;101864.28;;;10.59;100.00
27334;BME280;14817;57.104;-2.094;2023-05-12T08:37:48;101863.06;;;10.63;100.00
27334;BME280;14817;57.104;-2.094;2023-05-12T08:40:19;101865.28;;;10.80;100.00
27334;BME280;14817;57.104;-2.094;2023-05-12T08:45:21;101868.16;;;10.66;100.00
27334;BME280;14817;57.104;-2.094;2023-05-12T08:47:49;101868.69;;;10.82;100.00
27334;BME280;14817;57.104;-2.094;2023-05-12T08:50:20;101867.22;;;10.78;100.00
27334;BME280;14817;57.104;-2.094;2023-05-12T08:52:48;101868.69;;;10.82;100.00
27334;BME280;14817;57.104;-2.094;2023-05-12T08:55:17;101873.78;;;10.74;100.00
27334;BME280;14817;57.104;-2.094;2023-05-12T08:57:46;101868.16;;;10.66;100.00
27334;BME280;14817;57.104;-2.094;2023-05-12T09:00:14;101871.84;;;10.88;100.00
27334;BME280;14817;57.104;-2.094;2023-05-12T09:02:42;101875.00;;;10.70;100.00
27334;BME280;14817;57.104;-2.094;2023-05-12T09:05:20;101872.53;;;10.56;100.00
27334;BME280;14817;57.104;-2.094;2023-05-12T09:07:50;101881.34;;;10.92;100.00
27334;BME280;14817;57.104;-2.094;2023-05-12T09:10:21;101888.50;;;10.69;100.00
27334;BME280;14817;57.104;-2.094;2023-05-12T09:13:13;101871.97;;;10.97;100.00
27334;BME280;14817;57.104;-2.094;2023-05-12T09:15:44;101878.53;;;11.04;100.00
27334;BME280;14817;57.104;-2.094;2023-05-12T09:18:13;101884.66;;;10.95;100.00
27334;BME280;14817;57.104;-2.094;2023-05-12T09:20:39;101885.38;;;10.86;100.00
27334;BME280;14817;57.104;-2.094;2023-05-12T09:23:17;101889.88;;;10.74;100.00
27334;BME280;14817;57.104;-2.094;2023-05-12T09:25:45;101892.91;;;10.81;100.00
27334;BME280;14817;57.104;-2.094;2023-05-12T09:28:14;101899.75;;;10.96;100.00
27334;BME280;14817;57.104;-2.094;2023-05-12T09:30:41;101887.44;;;11.05;100.00
27334;BME280;14817;57.104;-2.094;2023-05-12T09:33:12;101897.09;;;11.19;100.00
27334;BME280;14817;57.104;-2.094;2023-05-12T09:35:41;101897.31;;;11.27;100.00
27334;BME280;14817;57.104;-2.094;2023-05-12T09:38:10;101901.34;;;11.44;100.00
27334;BME280;14817;57.104;-2.094;2023-05-12T09:40:37;101905.47;;;11.37;100.00
27334;BME280;14817;57.104;-2.094;2023-05-12T09:43:05;101911.31;;;11.53;100.00
27334;BME280;14817;57.104;-2.094;2023-05-12T09:45:33;101917.66;;;11.41;100.00
27334;BME280;14817;57.104;-2.094;2023-05-12T09:48:07;101915.22;;;11.49;100.00
27334;BME280;14817;57.104;-2.094;2023-05-12T09:50:49;101914.97;;;11.52;100.00
27334;BME280;14817;57.104;-2.094;2023-05-12T09:53:17;101917.63;;;11.63;100.00
27334;BME280;14817;57.104;-2.094;2023-05-12T09:55:46;101919.59;;;11.61;100.00
27334;BME280;14817;57.104;-2.094;2023-05-12T09:58:18;101919.34;;;11.53;100.00
27334;BME280;14817;57.104;-2.094;2023-05-12T10:00:46;101924.84;;;11.52;100.00
27334;BME280;14817;57.104;-2.094;2023-05-12T10:03:17;101926.88;;;11.71;100.00
27334;BME280;14817;57.104;-2.094;2023-05-12T10:05:49;101924.31;;;11.69;100.00
27334;BME280;14817;57.104;-2.094;2023-05-12T10:08:23;101920.63;;;11.81;100.00
27334;BME280;14817;57.104;-2.094;2023-05-12T10:10:50;101926.88;;;11.71;100.00
27334;BME280;14817;57.104;-2.094;2023-05-12T10:13:19;101923.09;;;11.73;100.00
27334;BME280;14817;57.104;-2.094;2023-05-12T10:15:47;101924.94;;;11.73;100.00
27334;BME280;14817;57.104;-2.094;2023-05-12T10:18:15;101926.16;;;11.69;100.00
27334;BME280;14817;57.104;-2.094;2023-05-12T10:20:43;101928.94;;;11.90;100.00
27334;BME280;14817;57.104;-2.094;2023-05-12T10:23:11;101929.22;;;11.64;100.00
27334;BME280;14817;57.104;-2.094;2023-05-12T10:25:41;101932.66;;;11.43;100.00
27334;BME280;14817;57.104;-2.094;2023-05-12T10:28:10;101934.34;;;11.67;100.00
27334;BME280;14817;57.104;-2.094;2023-05-12T10:30:41;101933.00;;;11.61;100.00
27334;BME280;14817;57.104;-2.094;2023-05-12T10:33:08;101934.09;;;11.70;100.00
27334;BME280;14817;57.104;-2.094;2023-05-12T10:35:38;101941.25;;;11.81;100.00
27334;BME280;14817;57.104;-2.094;2023-05-12T10:38:14;101944.94;;;11.80;100.00
27334;BME280;14817;57.104;-2.094;2023-05-12T10:40:59;101957.63;;;11.78;100.00
27334;BME280;14817;57.104;-2.094;2023-05-12T10:46:20;101952.47;;;11.86;100.00
27334;BME280;14817;57.104;-2.094;2023-05-12T10:48:56;101957.63;;;11.89;100.00
27334;BME280;14817;57.104;-2.094;2023-05-12T10:51:33;101955.28;;;11.96;100.00
27334;BME280;14817;57.104;-2.094;2023-05-12T10:54:05;101951.03;;;11.71;100.00
27334;BME280;14817;57.104;-2.094;2023-05-12T10:59:13;101955.91;;;11.77;100.00
27334;BME280;14817;57.104;-2.094;2023-05-12T11:02:02;101960.53;;;11.75;100.00
27334;BME280;14817;57.104;-2.094;2023-05-12T11:07:15;101963.50;;;11.72;100.00
27334;BME280;14817;57.104;-2.094;2023-05-12T11:09:45;101965.69;;;11.89;100.00
27334;BME280;14817;57.104;-2.094;2023-05-12T11:12:27;101964.91;;;11.98;100.00
27334;BME280;14817;57.104;-2.094;2023-05-12T11:14:54;101972.13;;;11.87;100.00
27334;BME280;14817;57.104;-2.094;2023-05-12T11:17:21;101966.88;;;11.85;100.00
27334;BME280;14817;57.104;-2.094;2023-05-12T11:19:49;101970.56;;;11.95;100.00
27334;BME280;14817;57.104;-2.094;2023-05-12T11:22:17;101963.56;;;12.04;100.00
27334;BME280;14817;57.104;-2.094;2023-05-12T11:24:46;101970.06;;;12.01;100.00
27334;BME280;14817;57.104;-2.094;2023-05-12T11:27:15;101964.44;;;11.82;100.00
27334;BME280;14817;57.104;-2.094;2023-05-12T11:29:42;101967.09;;;11.82;100.00
27334;BME280;14817;57.104;-2.094;2023-05-12T11:32:10;101964.53;;;12.14;100.00
27334;BME280;14817;57.104;-2.094;2023-05-12T11:34:38;101970.06;;;12.01;100.00
27334;BME280;14817;57.104;-2.094;2023-05-12T11:37:05;101967.00;;;12.38;100.00
27334;BME280;14817;57.104;-2.094;2023-05-12T11:39:35;101967.03;;;12.27;100.00
27334;BME280;14817;57.104;-2.094;2023-05-12T11:42:03;101964.19;;;12.40;100.00
27334;BME280;14817;57.104;-2.094;2023-05-12T11:44:46;101959.69;;;12.61;100.00
27334;BME280;14817;57.104;-2.094;2023-05-12T11:47:14;101971.75;;;12.35;100.00
27334;BME280;14817;57.104;-2.094;2023-05-12T11:49:48;101969.00;;;12.25;100.00
27334;BME280;14817;57.104;-2.094;2023-05-12T11:52:17;101969.63;;;12.50;100.00
27334;BME280;14817;57.104;-2.094;2023-05-12T11:54:52;101973.53;;;12.45;100.00
27334;BME280;14817;57.104;-2.094;2023-05-12T11:57:26;101974.53;;;12.86;100.00
27334;BME280;14817;57.104;-2.094;2023-05-12T12:00:02;101979.03;;;12.76;100.00
27334;BME280;14817;57.104;-2.094;2023-05-12T12:02:32;101984.56;;;13.05;100.00
27334;BME280;14817;57.104;-2.094;2023-05-12T12:05:01;101984.91;;;12.70;100.00
27334;BME280;14817;57.104;-2.094;2023-05-12T12:09:57;101982.09;;;12.51;100.00
27334;BME280;14817;57.104;-2.094;2023-05-12T12:12:24;101979.41;;;12.93;100.00
27334;BME280;14817;57.104;-2.094;2023-05-12T12:14:51;101976.47;;;12.96;100.00
27334;BME280;14817;57.104;-2.094;2023-05-12T12:17:18;101988.44;;;12.71;100.00
27334;BME280;14817;57.104;-2.094;2023-05-12T12:19:44;101976.84;;;12.70;100.00
27334;BME280;14817;57.104;-2.094;2023-05-12T12:22:13;101985.16;;;12.88;100.00
27334;BME280;14817;57.104;-2.094;2023-05-12T12:24:39;101980.13;;;12.95;100.00
27334;BME280;14817;57.104;-2.094;2023-05-12T12:27:06;101979.25;;;13.15;100.00
27334;BME280;14817;57.104;-2.094;2023-05-12T12:29:34;101987.25;;;13.26;100.00
27334;BME280;14817;57.104;-2.094;2023-05-12T12:32:00;101988.38;;;13.24;100.00
27334;BME280;14817;57.104;-2.094;2023-05-12T12:34:27;101972.34;;;13.22;100.00
27334;BME280;14817;57.104;-2.094;2023-05-12T12:36:54;101981.00;;;13.47;100.00
27334;BME280;14817;57.104;-2.094;2023-05-12T12:39:21;101979.78;;;13.30;100.00
27334;BME280;14817;57.104;-2.094;2023-05-12T12:41:48;101976.16;;;13.20;100.00
27334;BME280;14817;57.104;-2.094;2023-05-12T12:44:16;101981.25;;;13.44;100.00
27334;BME280;14817;57.104;-2.094;2023-05-12T12:46:43;101976.50;;;13.57;100.00
27334;BME280;14817;57.104;-2.094;2023-05-12T12:49:10;101990.47;;;13.20;100.00
27334;BME280;14817;57.104;-2.094;2023-05-12T12:51:36;101993.69;;;13.14;100.00
27334;BME280;14817;57.104;-2.094;2023-05-12T12:54:12;101990.94;;;13.25;100.00